Friday, December 19, 2014
14:21 UTC
  |  Log In   |  Register Free
Airport Search:

New River Valley Airport
(KPSK)

New River Valley Airport Diagram
No Airport Diagram Available

FAA data valid effective November 13, 2014 - January 08, 2015 (unless otherwise noted).

 
 
 
 
 
 
 
 
 
 
 
 
 
 

Current Aviation Weather for New River Valley Airport (KPSK)

The most recent METAR observation for KPSK was updated at: 2118
METAR Summary (Translated METAR)
KPSK
182055Z AUTO 21006KT 10SM OVC080 05/M04 A3007 RMK AO2 T00531036
KBCB
182055Z AUTO 30006KT 10SM OVC080 04/M06 A3007 RMK AO2 T00351059
(13.6 nm NE from KPSK)
KHLX
182055Z AUTO 32008KT 10SM OVC050 03/M07 A3004 RMK AO2 T00281069
(23.4 nm SW from KPSK)
TAF Summary (Translated TAF)
KBCB
(13.6 nm NE from KPSK)
191127Z 1912/2012 29006KT P6SM BKN070 FM191500 28007KT P6SM SCT035 FM201000 00000KT P6SM SCT045 OVC080
  Airport Weather Conditions for KPSK

 Current Weather at PSK
31° F
Partly Cloudy
Northwest winds at 5.8 mph
PSK NOAA Radar

Pressure: 30.14 in
Humidity: 77%
Wind: Northwest at 5.8 MPH (5 KT)
Dew Point: 24.8°F
Visibility: 10.00 mi


Airport Weather Forecast for KPSK

Translated METAR and TAF for KPSK
Translated METAR for KPSK (1422 UTC 19 December 2014)
found at http://aviationweather.gov/adds/metars/
 
METAR text: KPSK 191415Z AUTO 30008KT 10SM CLR 01/M04 A3018 RMK AO2 T00051041
Conditions at: KPSK (DUBLIN/NEW RIV , VA, US) observed 1415 UTC 19 December 2014
Temperature: 0.5°C (33°F)
Dewpoint: -4.1°C (25°F) [RH = 71%]
Pressure (altimeter): 30.18 inches Hg (1022.1 mb)
Winds: from the WNW (300 degrees) at 9 MPH (8 knots; 4.2 m/s)
Visibility: 10 or more miles (16+ km)
Ceiling: at least 12,000 feet AGL
Clouds: sky clear below 12,000 feet AGL
Weather: automated observation with no human augmentation;
there may or may not be significant weather present at this time
Translated TAF for KPSK

There is no translated TAF available for this airport

Find All Airport Services Find A Hotel Find A Rental Car Find A Golf Course Find A Restaurant $100 Hamburger



FBO's on the Field
FBO Company Facility Photos Services Transportation Aviation Fuel Prices: Prices include tax
Catering Weather Repair Courtesy Rental Type 100LL JetA JetA+ MOGAS 8087
 
New River Valley Airport

This FBO has not yet been rated
FS:Avfuel
Last Updated: Nov-25
Login to update fuel prices
SS:
Contact New River Valley AirportMore FBO Information
 
Add another FBO Facility Photos Catering Weather Repair Courtesy Rental Type 100LL JetA JetA+ MOGAS 8087
Services Transportation Aviation Fuel Prices: Prices include tax


model-print
model-print
model-print
model-print